sensor_id;sensor_type;location;lat;lon;timestamp;P1;durP1;ratioP1;P2;durP2;ratioP2
22191;SDS011;11261;52.456;10.850;2023-10-09T00:00:08;2.38;;;1.08;;
22191;SDS011;11261;52.456;10.850;2023-10-09T00:02:54;4.03;;;1.40;;
22191;SDS011;11261;52.456;10.850;2023-10-09T00:05:25;2.28;;;1.00;;
22191;SDS011;11261;52.456;10.850;2023-10-09T00:08:05;2.70;;;1.30;;
22191;SDS011;11261;52.456;10.850;2023-10-09T00:10:36;3.05;;;1.27;;
22191;SDS011;11261;52.456;10.850;2023-10-09T00:13:12;5.93;;;1.80;;
22191;SDS011;11261;52.456;10.850;2023-10-09T00:15:42;3.47;;;1.08;;
22191;SDS011;11261;52.456;10.850;2023-10-09T00:18:10;2.00;;;1.20;;
22191;SDS011;11261;52.456;10.850;2023-10-09T00:20:39;4.22;;;1.50;;
22191;SDS011;11261;52.456;10.850;2023-10-09T00:23:09;3.13;;;1.45;;
22191;SDS011;11261;52.456;10.850;2023-10-09T00:25:48;2.38;;;1.30;;
22191;SDS011;11261;52.456;10.850;2023-10-09T00:28:34;5.40;;;1.33;;
22191;SDS011;11261;52.456;10.850;2023-10-09T00:31:05;1.70;;;1.10;;
22191;SDS011;11261;52.456;10.850;2023-10-09T00:33:34;2.28;;;1.40;;
22191;SDS011;11261;52.456;10.850;2023-10-09T00:36:03;2.22;;;1.20;;
22191;SDS011;11261;52.456;10.850;2023-10-09T00:38:36;3.83;;;1.50;;
22191;SDS011;11261;52.456;10.850;2023-10-09T00:41:11;2.50;;;1.48;;
22191;SDS011;11261;52.456;10.850;2023-10-09T00:43:46;3.78;;;1.60;;
22191;SDS011;11261;52.456;10.850;2023-10-09T00:46:17;4.80;;;1.67;;
22191;SDS011;11261;52.456;10.850;2023-10-09T00:48:54;6.72;;;1.50;;
22191;SDS011;11261;52.456;10.850;2023-10-09T00:51:28;3.05;;;1.35;;
22191;SDS011;11261;52.456;10.850;2023-10-09T00:54:04;3.28;;;1.40;;
22191;SDS011;11261;52.456;10.850;2023-10-09T00:56:41;6.28;;;1.50;;
22191;SDS011;11261;52.456;10.850;2023-10-09T00:59:17;3.33;;;1.23;;
22191;SDS011;11261;52.456;10.850;2023-10-09T01:01:49;4.65;;;1.77;;
22191;SDS011;11261;52.456;10.850;2023-10-09T01:04:24;2.97;;;1.50;;
22191;SDS011;11261;52.456;10.850;2023-10-09T01:06:56;2.25;;;1.40;;
22191;SDS011;11261;52.456;10.850;2023-10-09T01:09:35;3.40;;;1.33;;
22191;SDS011;11261;52.456;10.850;2023-10-09T01:12:04;3.03;;;1.13;;
22191;SDS011;11261;52.456;10.850;2023-10-09T01:14:34;2.20;;;1.50;;
22191;SDS011;11261;52.456;10.850;2023-10-09T01:17:09;4.03;;;1.48;;
22191;SDS011;11261;52.456;10.850;2023-10-09T01:19:38;5.30;;;1.50;;
22191;SDS011;11261;52.456;10.850;2023-10-09T01:22:09;4.65;;;1.88;;
22191;SDS011;11261;52.456;10.850;2023-10-09T01:24:42;3.15;;;1.25;;
22191;SDS011;11261;52.456;10.850;2023-10-09T01:27:11;2.53;;;1.30;;
22191;SDS011;11261;52.456;10.850;2023-10-09T01:29:42;2.67;;;1.23;;
22191;SDS011;11261;52.456;10.850;2023-10-09T01:32:13;7.57;;;1.40;;
22191;SDS011;11261;52.456;10.850;2023-10-09T01:34:46;2.25;;;1.30;;
22191;SDS011;11261;52.456;10.850;2023-10-09T01:37:17;1.83;;;1.20;;
22191;SDS011;11261;52.456;10.850;2023-10-09T01:39:51;2.35;;;1.15;;
22191;SDS011;11261;52.456;10.850;2023-10-09T01:42:25;3.42;;;1.30;;
22191;SDS011;11261;52.456;10.850;2023-10-09T01:45:02;3.78;;;1.30;;
22191;SDS011;11261;52.456;10.850;2023-10-09T01:47:54;3.83;;;1.30;;
22191;SDS011;11261;52.456;10.850;2023-10-09T01:50:23;3.33;;;1.45;;
22191;SDS011;11261;52.456;10.850;2023-10-09T01:52:58;2.13;;;1.30;;
22191;SDS011;11261;52.456;10.850;2023-10-09T01:55:29;2.72;;;1.50;;
22191;SDS011;11261;52.456;10.850;2023-10-09T01:58:01;3.10;;;1.50;;
22191;SDS011;11261;52.456;10.850;2023-10-09T02:00:32;2.20;;;1.40;;
22191;SDS011;11261;52.456;10.850;2023-10-09T02:03:09;1.48;;;1.17;;
22191;SDS011;11261;52.456;10.850;2023-10-09T02:05:51;2.67;;;1.38;;
22191;SDS011;11261;52.456;10.850;2023-10-09T02:08:43;2.90;;;1.33;;
22191;SDS011;11261;52.456;10.850;2023-10-09T02:11:17;2.80;;;1.48;;
22191;SDS011;11261;52.456;10.850;2023-10-09T02:13:50;5.65;;;1.50;;
22191;SDS011;11261;52.456;10.850;2023-10-09T02:16:27;2.40;;;1.50;;
22191;SDS011;11261;52.456;10.850;2023-10-09T02:18:56;5.45;;;1.35;;
22191;SDS011;11261;52.456;10.850;2023-10-09T02:21:25;2.70;;;1.48;;
22191;SDS011;11261;52.456;10.850;2023-10-09T02:23:56;2.60;;;1.55;;
22191;SDS011;11261;52.456;10.850;2023-10-09T02:26:31;3.78;;;1.25;;
22191;SDS011;11261;52.456;10.850;2023-10-09T02:29:21;2.60;;;1.27;;
22191;SDS011;11261;52.456;10.850;2023-10-09T02:31:51;3.45;;;1.38;;
22191;SDS011;11261;52.456;10.850;2023-10-09T02:34:27;3.13;;;1.60;;
22191;SDS011;11261;52.456;10.850;2023-10-09T02:36:56;2.03;;;1.00;;
22191;SDS011;11261;52.456;10.850;2023-10-09T02:39:32;2.30;;;1.23;;
22191;SDS011;11261;52.456;10.850;2023-10-09T02:42:11;2.42;;;1.33;;
22191;SDS011;11261;52.456;10.850;2023-10-09T02:44:50;5.40;;;1.30;;
22191;SDS011;11261;52.456;10.850;2023-10-09T02:47:19;4.03;;;1.30;;
22191;SDS011;11261;52.456;10.850;2023-10-09T02:49:51;2.35;;;1.20;;
22191;SDS011;11261;52.456;10.850;2023-10-09T02:52:27;2.17;;;1.25;;
22191;SDS011;11261;52.456;10.850;2023-10-09T02:55:00;2.80;;;1.20;;
22191;SDS011;11261;52.456;10.850;2023-10-09T02:57:36;4.35;;;1.30;;
22191;SDS011;11261;52.456;10.850;2023-10-09T03:00:05;2.28;;;1.40;;
22191;SDS011;11261;52.456;10.850;2023-10-09T03:02:46;3.47;;;1.52;;
22191;SDS011;11261;52.456;10.850;2023-10-09T03:05:17;4.80;;;2.17;;
22191;SDS011;11261;52.456;10.850;2023-10-09T03:07:47;4.47;;;1.42;;
22191;SDS011;11261;52.456;10.850;2023-10-09T03:10:18;2.28;;;1.20;;
22191;SDS011;11261;52.456;10.850;2023-10-09T03:12:48;4.32;;;1.38;;
22191;SDS011;11261;52.456;10.850;2023-10-09T03:15:19;3.03;;;1.02;;
22191;SDS011;11261;52.456;10.850;2023-10-09T03:17:48;3.15;;;1.52;;
22191;SDS011;11261;52.456;10.850;2023-10-09T03:20:16;3.05;;;1.40;;
22191;SDS011;11261;52.456;10.850;2023-10-09T03:22:45;7.57;;;1.50;;
22191;SDS011;11261;52.456;10.850;2023-10-09T03:25:14;5.15;;;1.50;;
22191;SDS011;11261;52.456;10.850;2023-10-09T03:27:43;3.30;;;1.48;;
22191;SDS011;11261;52.456;10.850;2023-10-09T03:30:14;4.00;;;1.25;;
22191;SDS011;11261;52.456;10.850;2023-10-09T03:32:49;3.03;;;1.25;;
22191;SDS011;11261;52.456;10.850;2023-10-09T03:35:18;3.97;;;1.83;;
22191;SDS011;11261;52.456;10.850;2023-10-09T03:37:53;2.75;;;1.38;;
22191;SDS011;11261;52.456;10.850;2023-10-09T03:40:23;4.53;;;1.60;;
22191;SDS011;11261;52.456;10.850;2023-10-09T03:43:09;2.47;;;1.50;;
22191;SDS011;11261;52.456;10.850;2023-10-09T03:45:39;3.75;;;1.48;;
22191;SDS011;11261;52.456;10.850;2023-10-09T03:48:15;2.80;;;1.35;;
22191;SDS011;11261;52.456;10.850;2023-10-09T03:50:48;3.08;;;1.30;;
22191;SDS011;11261;52.456;10.850;2023-10-09T03:53:25;3.97;;;1.30;;
22191;SDS011;11261;52.456;10.850;2023-10-09T03:55:56;2.10;;;1.70;;
22191;SDS011;11261;52.456;10.850;2023-10-09T03:58:25;3.05;;;1.23;;
22191;SDS011;11261;52.456;10.850;2023-10-09T04:01:00;3.10;;;1.55;;
22191;SDS011;11261;52.456;10.850;2023-10-09T04:03:36;2.60;;;1.60;;
22191;SDS011;11261;52.456;10.850;2023-10-09T04:06:05;4.60;;;2.00;;
22191;SDS011;11261;52.456;10.850;2023-10-09T04:08:36;4.38;;;1.48;;
22191;SDS011;11261;52.456;10.850;2023-10-09T04:11:11;2.17;;;1.23;;
22191;SDS011;11261;52.456;10.850;2023-10-09T04:13:43;2.85;;;1.35;;
22191;SDS011;11261;52.456;10.850;2023-10-09T04:16:15;2.40;;;1.40;;
22191;SDS011;11261;52.456;10.850;2023-10-09T04:19:02;2.17;;;1.30;;
22191;SDS011;11261;52.456;10.850;2023-10-09T04:21:37;3.15;;;1.52;;
22191;SDS011;11261;52.456;10.850;2023-10-09T04:24:06;5.75;;;1.40;;
22191;SDS011;11261;52.456;10.850;2023-10-09T04:26:50;3.50;;;1.60;;
22191;SDS011;11261;52.456;10.850;2023-10-09T04:29:24;3.22;;;1.70;;
22191;SDS011;11261;52.456;10.850;2023-10-09T04:32:05;4.95;;;1.65;;
22191;SDS011;11261;52.456;10.850;2023-10-09T04:34:44;3.67;;;1.63;;
22191;SDS011;11261;52.456;10.850;2023-10-09T04:37:16;3.72;;;1.50;;
22191;SDS011;11261;52.456;10.850;2023-10-09T04:40:03;3.45;;;1.48;;
22191;SDS011;11261;52.456;10.850;2023-10-09T04:42:38;2.80;;;1.70;;
22191;SDS011;11261;52.456;10.850;2023-10-09T04:45:13;2.20;;;1.30;;
22191;SDS011;11261;52.456;10.850;2023-10-09T04:48:09;3.50;;;1.38;;
22191;SDS011;11261;52.456;10.850;2023-10-09T04:50:37;2.08;;;1.10;;
22191;SDS011;11261;52.456;10.850;2023-10-09T04:53:34;2.80;;;1.27;;
22191;SDS011;11261;52.456;10.850;2023-10-09T04:56:10;2.75;;;1.30;;
22191;SDS011;11261;52.456;10.850;2023-10-09T04:58:42;3.67;;;1.42;;
22191;SDS011;11261;52.456;10.850;2023-10-09T05:01:12;2.92;;;1.50;;
22191;SDS011;11261;52.456;10.850;2023-10-09T05:03:44;6.28;;;2.85;;
22191;SDS011;11261;52.456;10.850;2023-10-09T05:06:19;18.52;;;8.73;;
22191;SDS011;11261;52.456;10.850;2023-10-09T05:09:05;4.72;;;3.30;;
22191;SDS011;11261;52.456;10.850;2023-10-09T05:11:35;7.00;;;3.88;;
22191;SDS011;11261;52.456;10.850;2023-10-09T05:14:21;6.70;;;2.35;;
22191;SDS011;11261;52.456;10.850;2023-10-09T05:17:06;4.20;;;2.33;;
22191;SDS011;11261;52.456;10.850;2023-10-09T05:19:44;2.75;;;1.63;;
22191;SDS011;11261;52.456;10.850;2023-10-09T05:22:45;2.58;;;1.48;;
22191;SDS011;11261;52.456;10.850;2023-10-09T05:25:24;3.15;;;1.98;;
22191;SDS011;11261;52.456;10.850;2023-10-09T05:28:12;4.55;;;2.08;;
22191;SDS011;11261;52.456;10.850;2023-10-09T05:30:58;2.45;;;1.50;;
22191;SDS011;11261;52.456;10.850;2023-10-09T05:33:34;3.88;;;1.60;;
22191;SDS011;11261;52.456;10.850;2023-10-09T05:36:06;2.45;;;1.30;;
22191;SDS011;11261;52.456;10.850;2023-10-09T05:39:01;2.97;;;1.55;;
22191;SDS011;11261;52.456;10.850;2023-10-09T05:41:49;6.07;;;1.80;;
22191;SDS011;11261;52.456;10.850;2023-10-09T05:44:19;8.75;;;1.73;;
22191;SDS011;11261;52.456;10.850;2023-10-09T05:47:19;3.42;;;1.70;;
22191;SDS011;11261;52.456;10.850;2023-10-09T05:50:01;3.50;;;2.13;;
22191;SDS011;11261;52.456;10.850;2023-10-09T05:52:45;4.22;;;1.50;;
22191;SDS011;11261;52.456;10.850;2023-10-09T05:55:34;3.15;;;1.60;;
22191;SDS011;11261;52.456;10.850;2023-10-09T05:58:20;4.03;;;1.63;;
22191;SDS011;11261;52.456;10.850;2023-10-09T06:01:05;4.25;;;1.50;;
22191;SDS011;11261;52.456;10.850;2023-10-09T06:03:48;3.08;;;1.60;;
22191;SDS011;11261;52.456;10.850;2023-10-09T06:06:21;3.05;;;1.70;;
22191;SDS011;11261;52.456;10.850;2023-10-09T06:09:05;2.17;;;1.33;;
22191;SDS011;11261;52.456;10.850;2023-10-09T06:11:51;5.10;;;1.90;;
22191;SDS011;11261;52.456;10.850;2023-10-09T06:14:42;4.57;;;1.75;;
22191;SDS011;11261;52.456;10.850;2023-10-09T06:17:16;2.97;;;1.70;;
22191;SDS011;11261;52.456;10.850;2023-10-09T06:19:50;4.35;;;2.13;;
22191;SDS011;11261;52.456;10.850;2023-10-09T06:22:25;4.07;;;2.08;;
22191;SDS011;11261;52.456;10.850;2023-10-09T06:25:12;6.55;;;2.20;;
22191;SDS011;11261;52.456;10.850;2023-10-09T06:27:44;7.20;;;2.90;;
22191;SDS011;11261;52.456;10.850;2023-10-09T06:30:24;5.35;;;2.67;;
22191;SDS011;11261;52.456;10.850;2023-10-09T06:32:53;5.65;;;3.35;;
22191;SDS011;11261;52.456;10.850;2023-10-09T06:35:46;3.67;;;2.45;;
22191;SDS011;11261;52.456;10.850;2023-10-09T06:38:21;5.85;;;2.72;;
22191;SDS011;11261;52.456;10.850;2023-10-09T06:40:50;6.07;;;3.17;;
22191;SDS011;11261;52.456;10.850;2023-10-09T06:43:36;5.82;;;3.38;;
22191;SDS011;11261;52.456;10.850;2023-10-09T06:46:14;8.18;;;4.15;;
22191;SDS011;11261;52.456;10.850;2023-10-09T06:49:00;6.57;;;3.40;;
22191;SDS011;11261;52.456;10.850;2023-10-09T06:51:50;8.15;;;4.07;;
22191;SDS011;11261;52.456;10.850;2023-10-09T06:54:22;6.93;;;3.70;;
22191;SDS011;11261;52.456;10.850;2023-10-09T06:56:53;6.57;;;3.78;;
22191;SDS011;11261;52.456;10.850;2023-10-09T06:59:39;6.63;;;4.18;;
22191;SDS011;11261;52.456;10.850;2023-10-09T07:02:31;8.43;;;3.70;;
22191;SDS011;11261;52.456;10.850;2023-10-09T07:05:12;6.85;;;3.80;;
22191;SDS011;11261;52.456;10.850;2023-10-09T07:07:44;7.85;;;3.95;;
22191;SDS011;11261;52.456;10.850;2023-10-09T07:10:22;11.02;;;4.53;;
22191;SDS011;11261;52.456;10.850;2023-10-09T07:13:07;9.90;;;4.88;;
22191;SDS011;11261;52.456;10.850;2023-10-09T07:15:34;8.73;;;5.18;;
22191;SDS011;11261;52.456;10.850;2023-10-09T07:18:20;9.43;;;4.78;;
22191;SDS011;11261;52.456;10.850;2023-10-09T07:20:52;11.48;;;4.85;;
22191;SDS011;11261;52.456;10.850;2023-10-09T07:23:27;6.90;;;4.20;;
22191;SDS011;11261;52.456;10.850;2023-10-09T07:26:03;8.27;;;5.25;;
22191;SDS011;11261;52.456;10.850;2023-10-09T07:28:46;8.52;;;4.57;;
22191;SDS011;11261;52.456;10.850;2023-10-09T07:31:27;8.52;;;4.85;;
22191;SDS011;11261;52.456;10.850;2023-10-09T07:34:06;9.63;;;5.43;;
22191;SDS011;11261;52.456;10.850;2023-10-09T07:36:57;9.30;;;5.13;;
22191;SDS011;11261;52.456;10.850;2023-10-09T07:39:30;9.50;;;4.07;;
22191;SDS011;11261;52.456;10.850;2023-10-09T07:42:04;6.78;;;3.72;;
22191;SDS011;11261;52.456;10.850;2023-10-09T07:44:57;7.68;;;4.40;;
22191;SDS011;11261;52.456;10.850;2023-10-09T07:47:38;10.48;;;5.38;;
22191;SDS011;11261;52.456;10.850;2023-10-09T07:50:28;9.85;;;5.93;;
22191;SDS011;11261;52.456;10.850;2023-10-09T07:53:04;8.18;;;5.07;;
22191;SDS011;11261;52.456;10.850;2023-10-09T07:55:53;9.82;;;5.30;;
22191;SDS011;11261;52.456;10.850;2023-10-09T07:58:25;8.85;;;5.65;;
22191;SDS011;11261;52.456;10.850;2023-10-09T08:00:55;6.60;;;4.32;;
22191;SDS011;11261;52.456;10.850;2023-10-09T08:03:49;7.93;;;5.05;;
22191;SDS011;11261;52.456;10.850;2023-10-09T08:06:28;8.73;;;5.47;;
22191;SDS011;11261;52.456;10.850;2023-10-09T08:09:06;8.52;;;4.93;;
22191;SDS011;11261;52.456;10.850;2023-10-09T08:12:05;8.27;;;4.70;;
22191;SDS011;11261;52.456;10.850;2023-10-09T08:14:57;8.30;;;5.18;;
22191;SDS011;11261;52.456;10.850;2023-10-09T08:17:50;9.18;;;5.05;;
22191;SDS011;11261;52.456;10.850;2023-10-09T08:20:21;9.82;;;5.97;;
22191;SDS011;11261;52.456;10.850;2023-10-09T08:22:52;7.70;;;4.65;;
22191;SDS011;11261;52.456;10.850;2023-10-09T08:25:23;9.90;;;5.32;;
22191;SDS011;11261;52.456;10.850;2023-10-09T08:27:54;8.63;;;5.30;;
22191;SDS011;11261;52.456;10.850;2023-10-09T08:30:25;9.10;;;5.03;;
22191;SDS011;11261;52.456;10.850;2023-10-09T08:32:57;8.65;;;4.97;;
22191;SDS011;11261;52.456;10.850;2023-10-09T08:35:32;9.85;;;5.82;;
22191;SDS011;11261;52.456;10.850;2023-10-09T08:38:02;9.52;;;4.93;;
22191;SDS011;11261;52.456;10.850;2023-10-09T08:40:35;8.52;;;5.15;;
22191;SDS011;11261;52.456;10.850;2023-10-09T08:43:09;7.85;;;5.15;;
22191;SDS011;11261;52.456;10.850;2023-10-09T08:45:43;5.72;;;4.10;;
22191;SDS011;11261;52.456;10.850;2023-10-09T08:48:15;7.63;;;4.50;;
22191;SDS011;11261;52.456;10.850;2023-10-09T08:50:45;8.13;;;4.63;;
22191;SDS011;11261;52.456;10.850;2023-10-09T08:53:14;7.90;;;4.47;;
22191;SDS011;11261;52.456;10.850;2023-10-09T08:55:43;6.60;;;4.20;;
22191;SDS011;11261;52.456;10.850;2023-10-09T08:58:14;8.60;;;4.50;;
22191;SDS011;11261;52.456;10.850;2023-10-09T09:00:47;11.20;;;5.80;;
22191;SDS011;11261;52.456;10.850;2023-10-09T09:03:17;5.88;;;2.97;;
22191;SDS011;11261;52.456;10.850;2023-10-09T09:05:48;5.80;;;3.20;;
22191;SDS011;11261;52.456;10.850;2023-10-09T09:08:27;6.45;;;3.13;;
22191;SDS011;11261;52.456;10.850;2023-10-09T09:10:57;5.90;;;2.90;;
22191;SDS011;11261;52.456;10.850;2023-10-09T09:13:39;3.58;;;2.17;;
22191;SDS011;11261;52.456;10.850;2023-10-09T09:16:15;4.35;;;3.40;;
22191;SDS011;11261;52.456;10.850;2023-10-09T09:18:52;4.05;;;3.13;;
22191;SDS011;11261;52.456;10.850;2023-10-09T09:21:29;3.33;;;2.65;;
22191;SDS011;11261;52.456;10.850;2023-10-09T09:24:04;4.10;;;2.63;;
22191;SDS011;11261;52.456;10.850;2023-10-09T09:26:42;4.35;;;3.13;;
22191;SDS011;11261;52.456;10.850;2023-10-09T09:29:39;4.65;;;3.33;;
22191;SDS011;11261;52.456;10.850;2023-10-09T09:32:14;3.25;;;2.47;;
22191;SDS011;11261;52.456;10.850;2023-10-09T09:34:48;4.97;;;3.47;;
22191;SDS011;11261;52.456;10.850;2023-10-09T09:37:21;4.65;;;2.97;;
22191;SDS011;11261;52.456;10.850;2023-10-09T09:39:55;4.38;;;3.33;;
22191;SDS011;11261;52.456;10.850;2023-10-09T09:42:28;5.43;;;3.63;;
22191;SDS011;11261;52.456;10.850;2023-10-09T09:45:00;3.88;;;3.15;;
22191;SDS011;11261;52.456;10.850;2023-10-09T09:47:30;5.57;;;3.65;;
22191;SDS011;11261;52.456;10.850;2023-10-09T09:50:04;6.80;;;4.18;;
22191;SDS011;11261;52.456;10.850;2023-10-09T09:52:40;4.65;;;3.13;;
22191;SDS011;11261;52.456;10.850;2023-10-09T09:55:09;5.57;;;3.90;;
22191;SDS011;11261;52.456;10.850;2023-10-09T09:57:49;6.13;;;4.40;;
22191;SDS011;11261;52.456;10.850;2023-10-09T10:00:19;6.63;;;3.85;;
22191;SDS011;11261;52.456;10.850;2023-10-09T10:02:58;5.45;;;3.85;;
22191;SDS011;11261;52.456;10.850;2023-10-09T10:05:33;5.53;;;3.97;;
22191;SDS011;11261;52.456;10.850;2023-10-09T10:08:02;6.63;;;4.43;;
22191;SDS011;11261;52.456;10.850;2023-10-09T10:10:39;6.40;;;4.13;;
22191;SDS011;11261;52.456;10.850;2023-10-09T10:13:16;5.30;;;3.83;;
22191;SDS011;11261;52.456;10.850;2023-10-09T10:15:57;5.63;;;3.70;;
22191;SDS011;11261;52.456;10.850;2023-10-09T10:18:52;6.13;;;3.80;;
22191;SDS011;11261;52.456;10.850;2023-10-09T10:21:28;5.25;;;3.60;;
22191;SDS011;11261;52.456;10.850;2023-10-09T10:27:19;4.72;;;3.55;;
22191;SDS011;11261;52.456;10.850;2023-10-09T10:33:00;4.95;;;3.08;;
22191;SDS011;11261;52.456;10.850;2023-10-09T10:35:43;4.85;;;2.97;;
22191;SDS011;11261;52.456;10.850;2023-10-09T10:38:27;5.15;;;3.15;;
22191;SDS011;11261;52.456;10.850;2023-10-09T10:41:08;5.10;;;3.35;;
22191;SDS011;11261;52.456;10.850;2023-10-09T10:43:43;4.38;;;3.20;;
22191;SDS011;11261;52.456;10.850;2023-10-09T10:46:28;3.88;;;2.72;;
22191;SDS011;11261;52.456;10.850;2023-10-09T10:49:06;4.75;;;3.00;;
22191;SDS011;11261;52.456;10.850;2023-10-09T10:51:47;3.90;;;2.88;;
22191;SDS011;11261;52.456;10.850;2023-10-09T10:54:21;3.35;;;2.78;;
22191;SDS011;11261;52.456;10.850;2023-10-09T10:57:13;5.10;;;3.10;;
22191;SDS011;11261;52.456;10.850;2023-10-09T10:59:46;4.63;;;3.47;;
22191;SDS011;11261;52.456;10.850;2023-10-09T11:02:16;4.90;;;3.45;;
22191;SDS011;11261;52.456;10.850;2023-10-09T11:04:55;3.80;;;3.22;;
22191;SDS011;11261;52.456;10.850;2023-10-09T11:07:25;4.57;;;3.38;;
22191;SDS011;11261;52.456;10.850;2023-10-09T11:09:55;5.82;;;3.50;;
22191;SDS011;11261;52.456;10.850;2023-10-09T11:12:42;6.50;;;3.28;;
22191;SDS011;11261;52.456;10.850;2023-10-09T11:15:33;3.55;;;2.70;;
22191;SDS011;11261;52.456;10.850;2023-10-09T11:18:11;4.57;;;3.25;;
22191;SDS011;11261;52.456;10.850;2023-10-09T11:20:53;4.47;;;3.33;;
22191;SDS011;11261;52.456;10.850;2023-10-09T11:23:44;5.80;;;3.80;;
22191;SDS011;11261;52.456;10.850;2023-10-09T11:26:26;5.90;;;3.55;;
22191;SDS011;11261;52.456;10.850;2023-10-09T11:29:08;4.90;;;3.58;;
22191;SDS011;11261;52.456;10.850;2023-10-09T11:31:57;4.93;;;3.10;;
22191;SDS011;11261;52.456;10.850;2023-10-09T11:34:30;5.38;;;3.42;;
22191;SDS011;11261;52.456;10.850;2023-10-09T11:37:01;6.18;;;3.47;;
22191;SDS011;11261;52.456;10.850;2023-10-09T11:39:30;5.57;;;3.78;;
22191;SDS011;11261;52.456;10.850;2023-10-09T11:42:03;5.90;;;4.38;;
22191;SDS011;11261;52.456;10.850;2023-10-09T11:44:35;5.40;;;3.65;;
22191;SDS011;11261;52.456;10.850;2023-10-09T11:47:07;6.70;;;3.90;;
22191;SDS011;11261;52.456;10.850;2023-10-09T11:50:00;5.53;;;3.72;;
22191;SDS011;11261;52.456;10.850;2023-10-09T11:52:56;5.78;;;3.80;;
22191;SDS011;11261;52.456;10.850;2023-10-09T11:55:36;6.82;;;4.30;;
22191;SDS011;11261;52.456;10.850;2023-10-09T11:58:05;8.38;;;5.35;;
22191;SDS011;11261;52.456;10.850;2023-10-09T12:00:35;7.15;;;5.35;;
22191;SDS011;11261;52.456;10.850;2023-10-09T12:03:13;4.63;;;3.30;;
22191;SDS011;11261;52.456;10.850;2023-10-09T12:05:43;5.90;;;3.83;;
22191;SDS011;11261;52.456;10.850;2023-10-09T12:08:12;5.95;;;3.90;;
22191;SDS011;11261;52.456;10.850;2023-10-09T12:10:42;4.45;;;3.25;;
22191;SDS011;11261;52.456;10.850;2023-10-09T12:13:12;5.43;;;3.35;;
22191;SDS011;11261;52.456;10.850;2023-10-09T12:15:42;4.90;;;3.45;;
22191;SDS011;11261;52.456;10.850;2023-10-09T12:18:13;5.75;;;3.90;;
22191;SDS011;11261;52.456;10.850;2023-10-09T12:20:45;4.55;;;2.25;;
22191;SDS011;11261;52.456;10.850;2023-10-09T12:23:16;3.88;;;2.70;;
22191;SDS011;11261;52.456;10.850;2023-10-09T12:25:45;4.93;;;3.10;;
22191;SDS011;11261;52.456;10.850;2023-10-09T12:28:18;5.43;;;3.40;;
22191;SDS011;11261;52.456;10.850;2023-10-09T12:30:47;5.55;;;2.90;;
22191;SDS011;11261;52.456;10.850;2023-10-09T12:33:18;5.07;;;3.55;;
22191;SDS011;11261;52.456;10.850;2023-10-09T12:35:55;4.00;;;2.95;;
22191;SDS011;11261;52.456;10.850;2023-10-09T12:38:27;3.90;;;3.10;;
22191;SDS011;11261;52.456;10.850;2023-10-09T12:41:02;6.10;;;3.75;;
22191;SDS011;11261;52.456;10.850;2023-10-09T12:43:36;3.75;;;2.75;;
22191;SDS011;11261;52.456;10.850;2023-10-09T12:46:06;6.90;;;4.35;;
22191;SDS011;11261;52.456;10.850;2023-10-09T12:48:35;4.75;;;3.65;;
22191;SDS011;11261;52.456;10.850;2023-10-09T12:51:04;6.20;;;3.65;;
22191;SDS011;11261;52.456;10.850;2023-10-09T12:53:33;7.40;;;4.70;;
22191;SDS011;11261;52.456;10.850;2023-10-09T12:56:08;6.10;;;3.53;;
22191;SDS011;11261;52.456;10.850;2023-10-09T12:58:39;6.20;;;4.13;;
22191;SDS011;11261;52.456;10.850;2023-10-09T13:01:20;7.72;;;4.32;;
22191;SDS011;11261;52.456;10.850;2023-10-09T13:03:48;9.38;;;5.18;;
22191;SDS011;11261;52.456;10.850;2023-10-09T13:06:17;10.95;;;5.65;;
22191;SDS011;11261;52.456;10.850;2023-10-09T13:08:50;8.48;;;5.88;;
22191;SDS011;11261;52.456;10.850;2023-10-09T13:11:19;11.35;;;6.95;;
22191;SDS011;11261;52.456;10.850;2023-10-09T13:13:53;14.45;;;8.00;;
22191;SDS011;11261;52.456;10.850;2023-10-09T13:16:22;15.02;;;7.93;;
22191;SDS011;11261;52.456;10.850;2023-10-09T13:18:52;18.77;;;9.93;;
22191;SDS011;11261;52.456;10.850;2023-10-09T13:21:21;12.63;;;7.97;;
22191;SDS011;11261;52.456;10.850;2023-10-09T13:23:51;15.10;;;7.72;;
22191;SDS011;11261;52.456;10.850;2023-10-09T13:26:21;14.32;;;7.97;;
22191;SDS011;11261;52.456;10.850;2023-10-09T13:29:02;14.32;;;8.60;;
22191;SDS011;11261;52.456;10.850;2023-10-09T13:31:35;15.40;;;8.80;;
22191;SDS011;11261;52.456;10.850;2023-10-09T13:34:04;14.52;;;8.80;;
22191;SDS011;11261;52.456;10.850;2023-10-09T13:36:36;17.48;;;8.25;;
22191;SDS011;11261;52.456;10.850;2023-10-09T13:39:05;12.48;;;8.02;;
22191;SDS011;11261;52.456;10.850;2023-10-09T13:41:50;14.90;;;8.07;;
22191;SDS011;11261;52.456;10.850;2023-10-09T13:44:27;12.80;;;8.43;;
22191;SDS011;11261;52.456;10.850;2023-10-09T13:46:56;14.13;;;6.97;;
22191;SDS011;11261;52.456;10.850;2023-10-09T13:49:25;12.65;;;7.80;;
22191;SDS011;11261;52.456;10.850;2023-10-09T13:51:57;14.57;;;8.65;;
22191;SDS011;11261;52.456;10.850;2023-10-09T13:54:26;16.73;;;9.18;;
22191;SDS011;11261;52.456;10.850;2023-10-09T13:57:06;17.33;;;9.13;;
22191;SDS011;11261;52.456;10.850;2023-10-09T13:59:38;15.23;;;9.27;;
22191;SDS011;11261;52.456;10.850;2023-10-09T14:02:15;14.02;;;8.88;;
22191;SDS011;11261;52.456;10.850;2023-10-09T14:04:48;12.98;;;8.45;;
22191;SDS011;11261;52.456;10.850;2023-10-09T14:07:17;14.30;;;8.63;;
22191;SDS011;11261;52.456;10.850;2023-10-09T14:09:47;13.35;;;8.90;;
22191;SDS011;11261;52.456;10.850;2023-10-09T14:12:34;16.50;;;9.20;;
22191;SDS011;11261;52.456;10.850;2023-10-09T14:15:08;15.35;;;9.40;;
22191;SDS011;11261;52.456;10.850;2023-10-09T14:17:43;13.50;;;8.75;;
22191;SDS011;11261;52.456;10.850;2023-10-09T14:20:13;14.77;;;9.38;;
22191;SDS011;11261;52.456;10.850;2023-10-09T14:22:58;14.68;;;8.25;;
22191;SDS011;11261;52.456;10.850;2023-10-09T14:25:33;12.98;;;8.00;;
22191;SDS011;11261;52.456;10.850;2023-10-09T14:28:04;13.57;;;8.77;;
22191;SDS011;11261;52.456;10.850;2023-10-09T14:33:10;14.50;;;7.47;;
22191;SDS011;11261;52.456;10.850;2023-10-09T14:35:49;14.05;;;8.60;;
22191;SDS011;11261;52.456;10.850;2023-10-09T14:38:19;12.73;;;8.23;;
22191;SDS011;11261;52.456;10.850;2023-10-09T14:40:53;12.07;;;7.22;;
22191;SDS011;11261;52.456;10.850;2023-10-09T14:43:26;8.40;;;5.72;;
22191;SDS011;11261;52.456;10.850;2023-10-09T14:46:00;10.05;;;6.60;;
22191;SDS011;11261;52.456;10.850;2023-10-09T14:48:33;10.98;;;6.80;;
22191;SDS011;11261;52.456;10.850;2023-10-09T14:51:03;10.57;;;7.13;;
22191;SDS011;11261;52.456;10.850;2023-10-09T14:53:34;11.18;;;7.30;;
22191;SDS011;11261;52.456;10.850;2023-10-09T14:56:02;9.82;;;6.95;;
22191;SDS011;11261;52.456;10.850;2023-10-09T14:58:35;11.30;;;7.15;;
22191;SDS011;11261;52.456;10.850;2023-10-09T15:01:09;10.80;;;6.55;;
22191;SDS011;11261;52.456;10.850;2023-10-09T15:03:41;9.60;;;6.45;;
22191;SDS011;11261;52.456;10.850;2023-10-09T15:06:09;9.15;;;6.78;;
22191;SDS011;11261;52.456;10.850;2023-10-09T15:08:38;11.15;;;6.43;;
22191;SDS011;11261;52.456;10.850;2023-10-09T15:11:06;10.20;;;6.57;;
22191;SDS011;11261;52.456;10.850;2023-10-09T15:13:35;11.88;;;6.35;;
22191;SDS011;11261;52.456;10.850;2023-10-09T15:16:06;9.57;;;5.70;;
22191;SDS011;11261;52.456;10.850;2023-10-09T15:18:34;11.00;;;6.50;;
22191;SDS011;11261;52.456;10.850;2023-10-09T15:21:05;9.60;;;6.10;;
22191;SDS011;11261;52.456;10.850;2023-10-09T15:23:35;6.90;;;4.85;;
22191;SDS011;11261;52.456;10.850;2023-10-09T15:26:03;11.20;;;6.05;;
22191;SDS011;11261;52.456;10.850;2023-10-09T15:28:33;14.02;;;6.47;;
22191;SDS011;11261;52.456;10.850;2023-10-09T15:31:02;8.75;;;5.95;;